sensor_id;sensor_type;location;lat;lon;timestamp;temperature;humidity
20442;DHT22;10380;52.102;20.614;2024-03-22T00:01:54;9.30;99.90
20442;DHT22;10380;52.102;20.614;2024-03-22T00:06:48;9.40;99.90
20442;DHT22;10380;52.102;20.614;2024-03-22T00:09:15;9.40;99.90
20442;DHT22;10380;52.102;20.614;2024-03-22T00:11:42;9.40;99.90
20442;DHT22;10380;52.102;20.614;2024-03-22T00:14:08;9.40;99.90
20442;DHT22;10380;52.102;20.614;2024-03-22T00:16:35;9.30;99.90
20442;DHT22;10380;52.102;20.614;2024-03-22T00:19:01;9.30;99.90
20442;DHT22;10380;52.102;20.614;2024-03-22T00:23:55;9.30;99.90
20442;DHT22;10380;52.102;20.614;2024-03-22T00:26:21;9.40;99.90
20442;DHT22;10380;52.102;20.614;2024-03-22T00:28:48;9.30;99.90
20442;DHT22;10380;52.102;20.614;2024-03-22T00:31:14;9.40;99.90
20442;DHT22;10380;52.102;20.614;2024-03-22T00:33:41;9.50;99.90
20442;DHT22;10380;52.102;20.614;2024-03-22T00:36:08;9.40;99.90
20442;DHT22;10380;52.102;20.614;2024-03-22T00:38:34;9.40;99.90
20442;DHT22;10380;52.102;20.614;2024-03-22T00:41:00;9.40;99.90
20442;DHT22;10380;52.102;20.614;2024-03-22T00:43:26;9.50;99.90
20442;DHT22;10380;52.102;20.614;2024-03-22T00:48:19;9.50;99.90
20442;DHT22;10380;52.102;20.614;2024-03-22T00:53:11;9.50;99.90
20442;DHT22;10380;52.102;20.614;2024-03-22T00:58:04;9.60;99.90
20442;DHT22;10380;52.102;20.614;2024-03-22T01:00:30;9.60;99.90
20442;DHT22;10380;52.102;20.614;2024-03-22T01:02:57;9.60;99.90
20442;DHT22;10380;52.102;20.614;2024-03-22T01:05:22;9.50;99.90
20442;DHT22;10380;52.102;20.614;2024-03-22T01:07:49;9.60;99.90
20442;DHT22;10380;52.102;20.614;2024-03-22T01:15:08;9.70;99.90
20442;DHT22;10380;52.102;20.614;2024-03-22T01:17:35;9.70;99.90
20442;DHT22;10380;52.102;20.614;2024-03-22T01:20:01;9.80;99.90
20442;DHT22;10380;52.102;20.614;2024-03-22T01:24:54;9.70;99.90
20442;DHT22;10380;52.102;20.614;2024-03-22T01:27:20;9.70;99.90
20442;DHT22;10380;52.102;20.614;2024-03-22T01:29:47;9.70;99.90
20442;DHT22;10380;52.102;20.614;2024-03-22T01:32:13;10.60;99.90
20442;DHT22;10380;52.102;20.614;2024-03-22T01:34:39;9.70;99.90
20442;DHT22;10380;52.102;20.614;2024-03-22T01:39:32;9.60;99.90
20442;DHT22;10380;52.102;20.614;2024-03-22T01:41:58;9.70;99.90
20442;DHT22;10380;52.102;20.614;2024-03-22T01:44:32;9.90;99.90
20442;DHT22;10380;52.102;20.614;2024-03-22T01:46:58;9.70;99.90
20442;DHT22;10380;52.102;20.614;2024-03-22T01:51:53;9.60;99.90
20442;DHT22;10380;52.102;20.614;2024-03-22T01:54:20;9.70;99.90
20442;DHT22;10380;52.102;20.614;2024-03-22T01:59:14;9.60;99.90
20442;DHT22;10380;52.102;20.614;2024-03-22T02:09:01;9.70;99.90
20442;DHT22;10380;52.102;20.614;2024-03-22T02:11:27;9.70;99.90
20442;DHT22;10380;52.102;20.614;2024-03-22T02:16:20;9.70;99.90
20442;DHT22;10380;52.102;20.614;2024-03-22T02:18:45;9.60;99.90
20442;DHT22;10380;52.102;20.614;2024-03-22T02:23:39;9.70;99.90
20442;DHT22;10380;52.102;20.614;2024-03-22T02:26:06;9.80;99.90
20442;DHT22;10380;52.102;20.614;2024-03-22T02:31:00;9.80;99.90
20442;DHT22;10380;52.102;20.614;2024-03-22T02:33:26;9.70;99.90
20442;DHT22;10380;52.102;20.614;2024-03-22T02:35:52;9.70;99.90
20442;DHT22;10380;52.102;20.614;2024-03-22T02:38:19;9.80;99.90
20442;DHT22;10380;52.102;20.614;2024-03-22T02:40:46;9.80;99.90
20442;DHT22;10380;52.102;20.614;2024-03-22T02:43:12;9.70;99.90
20442;DHT22;10380;52.102;20.614;2024-03-22T02:48:05;9.70;99.90
20442;DHT22;10380;52.102;20.614;2024-03-22T02:50:36;9.70;99.90
20442;DHT22;10380;52.102;20.614;2024-03-22T02:57:56;9.80;99.90
20442;DHT22;10380;52.102;20.614;2024-03-22T03:02:50;9.70;99.90
20442;DHT22;10380;52.102;20.614;2024-03-22T03:05:16;9.80;99.90
20442;DHT22;10380;52.102;20.614;2024-03-22T03:15:02;10.00;99.90
20442;DHT22;10380;52.102;20.614;2024-03-22T03:19:55;9.80;99.90
20442;DHT22;10380;52.102;20.614;2024-03-22T03:24:47;9.90;99.90
20442;DHT22;10380;52.102;20.614;2024-03-22T03:27:13;9.60;99.90
20442;DHT22;10380;52.102;20.614;2024-03-22T03:34:31;9.90;99.90
20442;DHT22;10380;52.102;20.614;2024-03-22T03:36:57;9.60;99.90
20442;DHT22;10380;52.102;20.614;2024-03-22T03:39:26;9.60;99.90
20442;DHT22;10380;52.102;20.614;2024-03-22T03:41:53;9.50;99.90
20442;DHT22;10380;52.102;20.614;2024-03-22T03:56:30;8.90;99.90
20442;DHT22;10380;52.102;20.614;2024-03-22T04:03:49;8.80;99.90
20442;DHT22;10380;52.102;20.614;2024-03-22T04:06:15;8.80;99.90
20442;DHT22;10380;52.102;20.614;2024-03-22T04:08:42;8.70;99.90
20442;DHT22;10380;52.102;20.614;2024-03-22T04:13:35;8.60;99.90
20442;DHT22;10380;52.102;20.614;2024-03-22T04:16:01;8.50;99.90
20442;DHT22;10380;52.102;20.614;2024-03-22T04:18:28;8.50;99.90
20442;DHT22;10380;52.102;20.614;2024-03-22T04:20:54;8.50;99.90
20442;DHT22;10380;52.102;20.614;2024-03-22T04:23:22;8.50;99.90
20442;DHT22;10380;52.102;20.614;2024-03-22T04:25:58;8.40;99.90
20442;DHT22;10380;52.102;20.614;2024-03-22T04:28:25;8.40;99.90
20442;DHT22;10380;52.102;20.614;2024-03-22T04:33:25;8.40;99.90
20442;DHT22;10380;52.102;20.614;2024-03-22T04:38:18;8.40;99.90
20442;DHT22;10380;52.102;20.614;2024-03-22T04:40:44;8.10;99.90
20442;DHT22;10380;52.102;20.614;2024-03-22T04:43:10;8.40;99.90
20442;DHT22;10380;52.102;20.614;2024-03-22T04:45:36;8.20;99.90
20442;DHT22;10380;52.102;20.614;2024-03-22T04:48:04;8.30;99.90
20442;DHT22;10380;52.102;20.614;2024-03-22T04:50:31;8.20;99.90
20442;DHT22;10380;52.102;20.614;2024-03-22T04:52:57;8.20;99.90
20442;DHT22;10380;52.102;20.614;2024-03-22T04:57:51;8.20;99.90
20442;DHT22;10380;52.102;20.614;2024-03-22T05:00:17;8.30;99.90
20442;DHT22;10380;52.102;20.614;2024-03-22T05:02:43;8.20;99.90
20442;DHT22;10380;52.102;20.614;2024-03-22T05:07:35;8.10;99.90
20442;DHT22;10380;52.102;20.614;2024-03-22T05:10:02;8.20;99.90
20442;DHT22;10380;52.102;20.614;2024-03-22T05:12:29;8.50;99.90
20442;DHT22;10380;52.102;20.614;2024-03-22T05:19:48;8.10;99.90
20442;DHT22;10380;52.102;20.614;2024-03-22T05:22:14;8.00;99.90
20442;DHT22;10380;52.102;20.614;2024-03-22T05:24:40;8.20;99.90
20442;DHT22;10380;52.102;20.614;2024-03-22T05:29:32;8.10;99.90
20442;DHT22;10380;52.102;20.614;2024-03-22T05:34:26;8.10;99.90
20442;DHT22;10380;52.102;20.614;2024-03-22T05:36:52;8.00;99.90
20442;DHT22;10380;52.102;20.614;2024-03-22T05:41:44;8.00;99.90
20442;DHT22;10380;52.102;20.614;2024-03-22T05:44:11;8.00;99.90
20442;DHT22;10380;52.102;20.614;2024-03-22T05:51:30;8.20;99.90
20442;DHT22;10380;52.102;20.614;2024-03-22T05:53:57;8.30;99.90
20442;DHT22;10380;52.102;20.614;2024-03-22T05:56:23;8.20;99.90
20442;DHT22;10380;52.102;20.614;2024-03-22T06:03:42;8.20;99.90
20442;DHT22;10380;52.102;20.614;2024-03-22T06:11:06;8.30;99.90
20442;DHT22;10380;52.102;20.614;2024-03-22T06:13:33;8.50;99.90
20442;DHT22;10380;52.102;20.614;2024-03-22T06:20:53;8.30;99.90
20442;DHT22;10380;52.102;20.614;2024-03-22T06:23:23;8.30;99.90
20442;DHT22;10380;52.102;20.614;2024-03-22T06:25:53;8.30;99.90
20442;DHT22;10380;52.102;20.614;2024-03-22T06:35:40;8.10;99.90
20442;DHT22;10380;52.102;20.614;2024-03-22T06:38:06;8.10;99.90
20442;DHT22;10380;52.102;20.614;2024-03-22T06:40:34;8.10;99.90
20442;DHT22;10380;52.102;20.614;2024-03-22T06:47:53;8.10;99.90
20442;DHT22;10380;52.102;20.614;2024-03-22T06:50:18;8.20;99.90
20442;DHT22;10380;52.102;20.614;2024-03-22T06:55:19;8.30;99.90
20442;DHT22;10380;52.102;20.614;2024-03-22T06:57:47;8.30;99.90
20442;DHT22;10380;52.102;20.614;2024-03-22T07:02:40;8.30;99.90
20442;DHT22;10380;52.102;20.614;2024-03-22T07:05:07;8.30;99.90
20442;DHT22;10380;52.102;20.614;2024-03-22T07:07:33;8.30;99.90
20442;DHT22;10380;52.102;20.614;2024-03-22T07:12:26;8.20;99.90
20442;DHT22;10380;52.102;20.614;2024-03-22T07:14:52;8.40;99.90
20442;DHT22;10380;52.102;20.614;2024-03-22T07:19:50;8.50;99.90
20442;DHT22;10380;52.102;20.614;2024-03-22T07:22:18;8.40;99.90
20442;DHT22;10380;52.102;20.614;2024-03-22T07:24:44;8.40;99.90
20442;DHT22;10380;52.102;20.614;2024-03-22T07:27:11;8.60;99.90
20442;DHT22;10380;52.102;20.614;2024-03-22T07:29:37;8.40;99.90
20442;DHT22;10380;52.102;20.614;2024-03-22T07:34:29;8.50;99.90
20442;DHT22;10380;52.102;20.614;2024-03-22T07:36:56;8.50;99.90
20442;DHT22;10380;52.102;20.614;2024-03-22T07:41:49;8.70;99.90
20442;DHT22;10380;52.102;20.614;2024-03-22T07:46:46;8.90;99.90
20442;DHT22;10380;52.102;20.614;2024-03-22T07:49:13;8.90;99.90
20442;DHT22;10380;52.102;20.614;2024-03-22T07:51:39;9.40;99.90
20442;DHT22;10380;52.102;20.614;2024-03-22T07:54:06;9.00;99.90
20442;DHT22;10380;52.102;20.614;2024-03-22T07:56:32;9.00;99.90
20442;DHT22;10380;52.102;20.614;2024-03-22T08:03:54;9.30;99.90
20442;DHT22;10380;52.102;20.614;2024-03-22T08:06:20;9.30;99.90
20442;DHT22;10380;52.102;20.614;2024-03-22T08:08:46;9.30;99.90
20442;DHT22;10380;52.102;20.614;2024-03-22T08:11:12;9.40;99.90
20442;DHT22;10380;52.102;20.614;2024-03-22T08:16:04;9.50;99.90
20442;DHT22;10380;52.102;20.614;2024-03-22T08:18:32;9.40;99.90
20442;DHT22;10380;52.102;20.614;2024-03-22T08:20:59;9.40;99.90
20442;DHT22;10380;52.102;20.614;2024-03-22T08:23:25;9.50;99.90
20442;DHT22;10380;52.102;20.614;2024-03-22T08:25:51;9.40;99.90
20442;DHT22;10380;52.102;20.614;2024-03-22T08:30:44;9.50;99.90
20442;DHT22;10380;52.102;20.614;2024-03-22T08:38:04;9.50;99.90
20442;DHT22;10380;52.102;20.614;2024-03-22T08:40:37;9.60;99.90
20442;DHT22;10380;52.102;20.614;2024-03-22T08:43:05;9.70;99.90
20442;DHT22;10380;52.102;20.614;2024-03-22T08:45:30;9.80;99.90
20442;DHT22;10380;52.102;20.614;2024-03-22T08:50:23;9.50;99.90
20442;DHT22;10380;52.102;20.614;2024-03-22T08:52:49;9.70;99.90
20442;DHT22;10380;52.102;20.614;2024-03-22T08:55:15;9.70;99.90
20442;DHT22;10380;52.102;20.614;2024-03-22T08:57:41;9.60;99.90
20442;DHT22;10380;52.102;20.614;2024-03-22T09:00:08;9.40;99.90
20442;DHT22;10380;52.102;20.614;2024-03-22T09:07:27;9.50;99.90
20442;DHT22;10380;52.102;20.614;2024-03-22T09:09:53;9.60;99.90
20442;DHT22;10380;52.102;20.614;2024-03-22T09:12:19;9.80;99.90
20442;DHT22;10380;52.102;20.614;2024-03-22T09:14:45;9.60;99.90
20442;DHT22;10380;52.102;20.614;2024-03-22T09:19:38;9.40;99.90
20442;DHT22;10380;52.102;20.614;2024-03-22T09:22:04;9.50;99.90
20442;DHT22;10380;52.102;20.614;2024-03-22T09:26:57;9.40;99.90
20442;DHT22;10380;52.102;20.614;2024-03-22T09:34:18;9.40;99.90
20442;DHT22;10380;52.102;20.614;2024-03-22T09:36:45;9.80;99.90
20442;DHT22;10380;52.102;20.614;2024-03-22T09:39:11;9.60;99.90
20442;DHT22;10380;52.102;20.614;2024-03-22T09:41:43;9.50;99.90
20442;DHT22;10380;52.102;20.614;2024-03-22T09:44:13;9.70;99.90
20442;DHT22;10380;52.102;20.614;2024-03-22T09:46:42;9.70;99.90
20442;DHT22;10380;52.102;20.614;2024-03-22T09:49:10;9.80;99.90
20442;DHT22;10380;52.102;20.614;2024-03-22T09:51:37;10.30;99.90
20442;DHT22;10380;52.102;20.614;2024-03-22T09:58:58;10.30;99.90
20442;DHT22;10380;52.102;20.614;2024-03-22T10:01:24;10.40;99.90
20442;DHT22;10380;52.102;20.614;2024-03-22T10:03:54;10.40;99.90
20442;DHT22;10380;52.102;20.614;2024-03-22T10:06:21;10.50;99.90
20442;DHT22;10380;52.102;20.614;2024-03-22T10:11:14;10.60;99.90
20442;DHT22;10380;52.102;20.614;2024-03-22T10:13:40;10.60;99.90
20442;DHT22;10380;52.102;20.614;2024-03-22T10:16:07;10.70;99.90
20442;DHT22;10380;52.102;20.614;2024-03-22T10:18:33;10.70;99.90
20442;DHT22;10380;52.102;20.614;2024-03-22T10:21:03;10.70;99.90
20442;DHT22;10380;52.102;20.614;2024-03-22T10:23:31;10.60;99.90
20442;DHT22;10380;52.102;20.614;2024-03-22T10:25:57;10.60;99.90
20442;DHT22;10380;52.102;20.614;2024-03-22T10:28:27;10.50;99.90
20442;DHT22;10380;52.102;20.614;2024-03-22T10:30:54;10.50;99.90
20442;DHT22;10380;52.102;20.614;2024-03-22T10:33:21;10.50;99.90
20442;DHT22;10380;52.102;20.614;2024-03-22T10:35:53;10.50;99.90
20442;DHT22;10380;52.102;20.614;2024-03-22T10:38:22;10.60;99.90
20442;DHT22;10380;52.102;20.614;2024-03-22T10:40:48;10.50;99.90
20442;DHT22;10380;52.102;20.614;2024-03-22T10:43:15;9.90;99.90
20442;DHT22;10380;52.102;20.614;2024-03-22T10:45:42;10.90;99.90
20442;DHT22;10380;52.102;20.614;2024-03-22T10:48:12;10.60;99.90
20442;DHT22;10380;52.102;20.614;2024-03-22T10:50:42;10.60;99.90
20442;DHT22;10380;52.102;20.614;2024-03-22T10:53:16;10.90;99.90
20442;DHT22;10380;52.102;20.614;2024-03-22T10:55:47;10.90;99.90
20442;DHT22;10380;52.102;20.614;2024-03-22T10:58:21;11.30;99.90
20442;DHT22;10380;52.102;20.614;2024-03-22T11:00:47;11.00;99.90
20442;DHT22;10380;52.102;20.614;2024-03-22T11:03:13;10.90;99.90
20442;DHT22;10380;52.102;20.614;2024-03-22T11:05:46;11.10;99.90
20442;DHT22;10380;52.102;20.614;2024-03-22T11:10:40;10.80;99.90
20442;DHT22;10380;52.102;20.614;2024-03-22T11:13:07;10.80;99.90
20442;DHT22;10380;52.102;20.614;2024-03-22T11:18:01;10.70;99.90
20442;DHT22;10380;52.102;20.614;2024-03-22T11:20:27;10.90;99.90
20442;DHT22;10380;52.102;20.614;2024-03-22T11:22:54;11.10;99.90
20442;DHT22;10380;52.102;20.614;2024-03-22T11:25:20;11.10;99.90
20442;DHT22;10380;52.102;20.614;2024-03-22T11:27:47;11.10;99.90
20442;DHT22;10380;52.102;20.614;2024-03-22T11:30:15;11.20;99.90
20442;DHT22;10380;52.102;20.614;2024-03-22T11:32:41;11.30;99.90
20442;DHT22;10380;52.102;20.614;2024-03-22T11:35:12;11.60;99.90
20442;DHT22;10380;52.102;20.614;2024-03-22T11:37:39;11.40;99.90
20442;DHT22;10380;52.102;20.614;2024-03-22T11:40:05;11.40;99.90
20442;DHT22;10380;52.102;20.614;2024-03-22T11:42:35;11.40;99.90
20442;DHT22;10380;52.102;20.614;2024-03-22T11:45:02;11.20;99.90
20442;DHT22;10380;52.102;20.614;2024-03-22T11:47:28;11.60;99.90
20442;DHT22;10380;52.102;20.614;2024-03-22T11:49:55;11.50;99.90
20442;DHT22;10380;52.102;20.614;2024-03-22T11:52:28;11.70;99.90
20442;DHT22;10380;52.102;20.614;2024-03-22T11:54:54;11.60;99.90
20442;DHT22;10380;52.102;20.614;2024-03-22T11:57:21;11.60;99.90
20442;DHT22;10380;52.102;20.614;2024-03-22T11:59:47;11.60;99.90
20442;DHT22;10380;52.102;20.614;2024-03-22T12:02:13;11.60;99.90
20442;DHT22;10380;52.102;20.614;2024-03-22T12:04:46;11.60;99.90
20442;DHT22;10380;52.102;20.614;2024-03-22T12:07:17;11.40;99.90
20442;DHT22;10380;52.102;20.614;2024-03-22T12:09:44;11.40;99.90
20442;DHT22;10380;52.102;20.614;2024-03-22T12:12:12;11.40;99.90
20442;DHT22;10380;52.102;20.614;2024-03-22T12:14:39;11.30;99.90
20442;DHT22;10380;52.102;20.614;2024-03-22T12:17:05;11.20;99.90
20442;DHT22;10380;52.102;20.614;2024-03-22T12:19:32;11.30;99.90
20442;DHT22;10380;52.102;20.614;2024-03-22T12:21:58;11.20;99.90
20442;DHT22;10380;52.102;20.614;2024-03-22T12:26:51;11.40;99.90
20442;DHT22;10380;52.102;20.614;2024-03-22T12:29:17;11.30;99.90
20442;DHT22;10380;52.102;20.614;2024-03-22T12:31:44;11.30;99.90
20442;DHT22;10380;52.102;20.614;2024-03-22T12:34:11;11.50;99.90
20442;DHT22;10380;52.102;20.614;2024-03-22T12:36:37;11.60;99.90
20442;DHT22;10380;52.102;20.614;2024-03-22T12:41:30;11.60;99.90
20442;DHT22;10380;52.102;20.614;2024-03-22T12:43:57;11.70;99.90
20442;DHT22;10380;52.102;20.614;2024-03-22T12:48:49;11.90;99.90
20442;DHT22;10380;52.102;20.614;2024-03-22T12:51:16;11.90;99.90
20442;DHT22;10380;52.102;20.614;2024-03-22T12:53:42;11.80;99.90
20442;DHT22;10380;52.102;20.614;2024-03-22T12:56:08;11.80;99.90
20442;DHT22;10380;52.102;20.614;2024-03-22T12:58:34;11.80;99.90
20442;DHT22;10380;52.102;20.614;2024-03-22T13:01:00;11.80;99.90
20442;DHT22;10380;52.102;20.614;2024-03-22T13:03:31;11.70;99.90
20442;DHT22;10380;52.102;20.614;2024-03-22T13:08:24;11.80;99.90
20442;DHT22;10380;52.102;20.614;2024-03-22T13:18:13;11.90;99.90
20442;DHT22;10380;52.102;20.614;2024-03-22T13:25:35;11.90;99.90
20442;DHT22;10380;52.102;20.614;2024-03-22T13:28:03;12.00;99.90
20442;DHT22;10380;52.102;20.614;2024-03-22T13:30:31;11.90;99.90
20442;DHT22;10380;52.102;20.614;2024-03-22T13:32:57;12.00;99.90
20442;DHT22;10380;52.102;20.614;2024-03-22T13:35:25;11.90;99.90
20442;DHT22;10380;52.102;20.614;2024-03-22T13:37:51;12.20;99.90
20442;DHT22;10380;52.102;20.614;2024-03-22T13:40:17;12.20;99.90
20442;DHT22;10380;52.102;20.614;2024-03-22T13:45:09;12.20;99.90
20442;DHT22;10380;52.102;20.614;2024-03-22T13:50:09;12.30;99.90
20442;DHT22;10380;52.102;20.614;2024-03-22T13:52:35;12.10;99.90
20442;DHT22;10380;52.102;20.614;2024-03-22T13:55:02;12.00;99.90
20442;DHT22;10380;52.102;20.614;2024-03-22T13:57:28;11.60;99.90
20442;DHT22;10380;52.102;20.614;2024-03-22T13:59:54;11.70;99.90
20442;DHT22;10380;52.102;20.614;2024-03-22T14:04:46;11.80;99.90
20442;DHT22;10380;52.102;20.614;2024-03-22T14:09:38;11.50;99.90
20442;DHT22;10380;52.102;20.614;2024-03-22T14:12:06;11.60;99.90
20442;DHT22;10380;52.102;20.614;2024-03-22T14:16:59;11.50;99.90
20442;DHT22;10380;52.102;20.614;2024-03-22T14:19:25;11.60;99.90
20442;DHT22;10380;52.102;20.614;2024-03-22T14:21:51;11.50;99.90
20442;DHT22;10380;52.102;20.614;2024-03-22T14:24:17;11.60;99.90
20442;DHT22;10380;52.102;20.614;2024-03-22T14:26:43;11.40;99.90
20442;DHT22;10380;52.102;20.614;2024-03-22T14:29:10;11.50;99.90
20442;DHT22;10380;52.102;20.614;2024-03-22T14:31:37;11.50;99.90
20442;DHT22;10380;52.102;20.614;2024-03-22T14:34:04;11.50;99.90
20442;DHT22;10380;52.102;20.614;2024-03-22T14:36:31;11.60;99.90
20442;DHT22;10380;52.102;20.614;2024-03-22T14:38:58;11.40;99.90
20442;DHT22;10380;52.102;20.614;2024-03-22T14:41:25;11.50;99.90
20442;DHT22;10380;52.102;20.614;2024-03-22T14:48:46;11.40;99.90
20442;DHT22;10380;52.102;20.614;2024-03-22T14:51:12;11.30;99.90
20442;DHT22;10380;52.102;20.614;2024-03-22T14:53:38;11.40;99.90
20442;DHT22;10380;52.102;20.614;2024-03-22T14:58:31;11.30;99.90
20442;DHT22;10380;52.102;20.614;2024-03-22T15:01:00;11.30;99.90
20442;DHT22;10380;52.102;20.614;2024-03-22T15:03:27;11.30;99.90
20442;DHT22;10380;52.102;20.614;2024-03-22T15:05:57;11.20;99.90
20442;DHT22;10380;52.102;20.614;2024-03-22T15:08:25;11.00;99.90
20442;DHT22;10380;52.102;20.614;2024-03-22T15:10:52;11.00;99.90
20442;DHT22;10380;52.102;20.614;2024-03-22T15:13:19;10.90;99.90
20442;DHT22;10380;52.102;20.614;2024-03-22T15:15:56;10.90;99.90
20442;DHT22;10380;52.102;20.614;2024-03-22T15:18:22;10.80;99.90
20442;DHT22;10380;52.102;20.614;2024-03-22T15:20:48;10.90;99.90
20442;DHT22;10380;52.102;20.614;2024-03-22T15:23:15;10.80;99.90
20442;DHT22;10380;52.102;20.614;2024-03-22T15:25:42;10.70;99.90
20442;DHT22;10380;52.102;20.614;2024-03-22T15:28:09;10.70;99.90
20442;DHT22;10380;52.102;20.614;2024-03-22T15:33:02;10.60;99.90
20442;DHT22;10380;52.102;20.614;2024-03-22T15:35:31;10.60;99.90
20442;DHT22;10380;52.102;20.614;2024-03-22T15:40:24;10.60;99.90
20442;DHT22;10380;52.102;20.614;2024-03-22T15:45:17;10.60;99.90
20442;DHT22;10380;52.102;20.614;2024-03-22T15:47:44;10.50;99.90
20442;DHT22;10380;52.102;20.614;2024-03-22T15:50:10;10.50;99.90
20442;DHT22;10380;52.102;20.614;2024-03-22T15:52:36;10.50;99.90
20442;DHT22;10380;52.102;20.614;2024-03-22T15:57:29;10.60;99.90
20442;DHT22;10380;52.102;20.614;2024-03-22T15:59:55;10.60;99.90
20442;DHT22;10380;52.102;20.614;2024-03-22T16:04:50;10.60;99.90
20442;DHT22;10380;52.102;20.614;2024-03-22T16:07:17;10.60;99.90
20442;DHT22;10380;52.102;20.614;2024-03-22T16:09:43;10.60;99.90
20442;DHT22;10380;52.102;20.614;2024-03-22T16:12:10;10.60;99.90
20442;DHT22;10380;52.102;20.614;2024-03-22T16:14:36;10.50;99.90
20442;DHT22;10380;52.102;20.614;2024-03-22T16:17:04;10.60;99.90
20442;DHT22;10380;52.102;20.614;2024-03-22T16:19:32;10.50;99.90
20442;DHT22;10380;52.102;20.614;2024-03-22T16:21:58;10.60;99.90
20442;DHT22;10380;52.102;20.614;2024-03-22T16:24:24;10.70;99.90
20442;DHT22;10380;52.102;20.614;2024-03-22T16:26:51;10.60;99.90
20442;DHT22;10380;52.102;20.614;2024-03-22T16:29:17;10.60;99.90
20442;DHT22;10380;52.102;20.614;2024-03-22T16:34:12;10.70;99.90
20442;DHT22;10380;52.102;20.614;2024-03-22T16:39:07;10.70;99.90
20442;DHT22;10380;52.102;20.614;2024-03-22T16:46:28;10.60;99.90
20442;DHT22;10380;52.102;20.614;2024-03-22T16:58:40;10.70;99.90
20442;DHT22;10380;52.102;20.614;2024-03-22T17:01:06;10.70;99.90
20442;DHT22;10380;52.102;20.614;2024-03-22T17:08:30;10.50;99.90
20442;DHT22;10380;52.102;20.614;2024-03-22T17:13:23;10.70;99.90
20442;DHT22;10380;52.102;20.614;2024-03-22T17:15:50;10.60;99.90
20442;DHT22;10380;52.102;20.614;2024-03-22T17:18:20;10.70;99.90
20442;DHT22;10380;52.102;20.614;2024-03-22T17:23:13;10.60;99.90
20442;DHT22;10380;52.102;20.614;2024-03-22T17:25:39;10.70;99.90
20442;DHT22;10380;52.102;20.614;2024-03-22T17:28:05;10.60;99.90
20442;DHT22;10380;52.102;20.614;2024-03-22T17:30:33;10.60;99.90
20442;DHT22;10380;52.102;20.614;2024-03-22T17:32:59;10.60;99.90
20442;DHT22;10380;52.102;20.614;2024-03-22T17:37:55;10.80;99.90
20442;DHT22;10380;52.102;20.614;2024-03-22T17:42:47;10.60;99.90
20442;DHT22;10380;52.102;20.614;2024-03-22T17:45:13;10.60;99.90
20442;DHT22;10380;52.102;20.614;2024-03-22T17:47:39;10.70;99.90
20442;DHT22;10380;52.102;20.614;2024-03-22T17:52:31;10.70;99.90
20442;DHT22;10380;52.102;20.614;2024-03-22T17:57:24;10.70;99.90
20442;DHT22;10380;52.102;20.614;2024-03-22T17:59:51;10.70;99.90
20442;DHT22;10380;52.102;20.614;2024-03-22T18:02:17;10.40;99.90
20442;DHT22;10380;52.102;20.614;2024-03-22T18:04:43;10.70;99.90
20442;DHT22;10380;52.102;20.614;2024-03-22T18:12:02;10.60;99.90
20442;DHT22;10380;52.102;20.614;2024-03-22T18:14:30;10.60;99.90
20442;DHT22;10380;52.102;20.614;2024-03-22T18:16:56;10.70;99.90
20442;DHT22;10380;52.102;20.614;2024-03-22T18:19:22;10.80;99.90
20442;DHT22;10380;52.102;20.614;2024-03-22T18:21:48;10.60;99.90
20442;DHT22;10380;52.102;20.614;2024-03-22T18:26:44;10.80;99.90
20442;DHT22;10380;52.102;20.614;2024-03-22T18:29:10;10.80;99.90
20442;DHT22;10380;52.102;20.614;2024-03-22T18:31:36;10.70;99.90
20442;DHT22;10380;52.102;20.614;2024-03-22T18:36:29;10.80;99.90
20442;DHT22;10380;52.102;20.614;2024-03-22T18:38:55;10.70;99.90
20442;DHT22;10380;52.102;20.614;2024-03-22T18:41:23;10.60;99.90
20442;DHT22;10380;52.102;20.614;2024-03-22T18:43:49;10.70;99.90
20442;DHT22;10380;52.102;20.614;2024-03-22T18:46:17;10.80;99.90
20442;DHT22;10380;52.102;20.614;2024-03-22T18:48:43;10.80;99.90
20442;DHT22;10380;52.102;20.614;2024-03-22T18:51:09;10.70;99.90
20442;DHT22;10380;52.102;20.614;2024-03-22T18:53:38;10.80;99.90
20442;DHT22;10380;52.102;20.614;2024-03-22T18:58:30;10.90;99.90
20442;DHT22;10380;52.102;20.614;2024-03-22T19:00:56;10.80;99.90
20442;DHT22;10380;52.102;20.614;2024-03-22T19:03:22;10.90;99.90
20442;DHT22;10380;52.102;20.614;2024-03-22T19:05:48;10.90;99.90
20442;DHT22;10380;52.102;20.614;2024-03-22T19:08:15;10.90;99.90
20442;DHT22;10380;52.102;20.614;2024-03-22T19:10:42;10.80;99.90
20442;DHT22;10380;52.102;20.614;2024-03-22T19:18:01;10.60;99.90
20442;DHT22;10380;52.102;20.614;2024-03-22T19:22:56;11.00;99.90
20442;DHT22;10380;52.102;20.614;2024-03-22T19:27:50;10.90;99.90
20442;DHT22;10380;52.102;20.614;2024-03-22T19:30:16;10.90;99.90
20442;DHT22;10380;52.102;20.614;2024-03-22T19:32:42;11.10;99.90
20442;DHT22;10380;52.102;20.614;2024-03-22T19:40:00;11.10;99.90
20442;DHT22;10380;52.102;20.614;2024-03-22T19:42:28;11.00;99.90
20442;DHT22;10380;52.102;20.614;2024-03-22T19:47:21;11.10;99.90
20442;DHT22;10380;52.102;20.614;2024-03-22T19:49:47;10.90;99.90
20442;DHT22;10380;52.102;20.614;2024-03-22T19:54:40;11.00;99.90
20442;DHT22;10380;52.102;20.614;2024-03-22T19:59:32;10.90;99.90
20442;DHT22;10380;52.102;20.614;2024-03-22T20:01:59;11.10;99.90
20442;DHT22;10380;52.102;20.614;2024-03-22T20:04:25;11.10;99.90
20442;DHT22;10380;52.102;20.614;2024-03-22T20:09:17;10.90;99.90
20442;DHT22;10380;52.102;20.614;2024-03-22T20:11:43;10.70;99.90
20442;DHT22;10380;52.102;20.614;2024-03-22T20:14:11;11.10;99.90
20442;DHT22;10380;52.102;20.614;2024-03-22T20:16:38;11.00;99.90
20442;DHT22;10380;52.102;20.614;2024-03-22T20:19:04;11.00;99.90
20442;DHT22;10380;52.102;20.614;2024-03-22T20:23:57;10.70;99.90
20442;DHT22;10380;52.102;20.614;2024-03-22T20:31:22;10.80;99.90
20442;DHT22;10380;52.102;20.614;2024-03-22T20:33:50;10.80;99.90
20442;DHT22;10380;52.102;20.614;2024-03-22T20:36:16;10.80;99.90
